sensor_id;sensor_type;location;lat;lon;timestamp;P1;durP1;ratioP1;P2;durP2;ratioP2
52942;SDS011;38809;53.300;6.614;2023-02-01T00:00:17;20.52;;;4.90;;
52942;SDS011;38809;53.300;6.614;2023-02-01T00:02:43;20.67;;;4.07;;
52942;SDS011;38809;53.300;6.614;2023-02-01T00:05:09;25.43;;;3.73;;
52942;SDS011;38809;53.300;6.614;2023-02-01T00:07:36;20.30;;;4.55;;
52942;SDS011;38809;53.300;6.614;2023-02-01T00:10:03;19.50;;;4.13;;
52942;SDS011;38809;53.300;6.614;2023-02-01T00:12:30;24.80;;;4.40;;
52942;SDS011;38809;53.300;6.614;2023-02-01T00:14:56;27.50;;;4.35;;
52942;SDS011;38809;53.300;6.614;2023-02-01T00:17:22;19.63;;;3.97;;
52942;SDS011;38809;53.300;6.614;2023-02-01T00:19:48;22.52;;;5.10;;
52942;SDS011;38809;53.300;6.614;2023-02-01T00:22:13;24.87;;;4.83;;
52942;SDS011;38809;53.300;6.614;2023-02-01T00:24:39;22.70;;;4.73;;
52942;SDS011;38809;53.300;6.614;2023-02-01T00:27:05;16.58;;;4.20;;
52942;SDS011;38809;53.300;6.614;2023-02-01T00:29:30;15.47;;;3.07;;
52942;SDS011;38809;53.300;6.614;2023-02-01T00:31:56;18.47;;;4.27;;
52942;SDS011;38809;53.300;6.614;2023-02-01T00:34:22;18.88;;;3.58;;
52942;SDS011;38809;53.300;6.614;2023-02-01T00:36:48;14.77;;;3.00;;
52942;SDS011;38809;53.300;6.614;2023-02-01T00:39:14;14.53;;;3.23;;
52942;SDS011;38809;53.300;6.614;2023-02-01T00:41:41;17.98;;;4.20;;
52942;SDS011;38809;53.300;6.614;2023-02-01T00:44:07;18.13;;;3.60;;
52942;SDS011;38809;53.300;6.614;2023-02-01T00:46:33;19.05;;;4.43;;
52942;SDS011;38809;53.300;6.614;2023-02-01T00:48:58;16.17;;;3.73;;
52942;SDS011;38809;53.300;6.614;2023-02-01T00:51:25;18.73;;;3.77;;
52942;SDS011;38809;53.300;6.614;2023-02-01T00:53:52;21.25;;;3.70;;
52942;SDS011;38809;53.300;6.614;2023-02-01T00:56:18;14.55;;;3.35;;
52942;SDS011;38809;53.300;6.614;2023-02-01T00:58:44;18.27;;;3.85;;
52942;SDS011;38809;53.300;6.614;2023-02-01T01:01:11;14.68;;;3.45;;
52942;SDS011;38809;53.300;6.614;2023-02-01T01:03:41;17.52;;;3.28;;
52942;SDS011;38809;53.300;6.614;2023-02-01T01:06:09;21.10;;;3.70;;
52942;SDS011;38809;53.300;6.614;2023-02-01T01:08:37;14.82;;;3.45;;
52942;SDS011;38809;53.300;6.614;2023-02-01T01:11:04;12.32;;;3.28;;
52942;SDS011;38809;53.300;6.614;2023-02-01T01:13:30;18.25;;;4.22;;
52942;SDS011;38809;53.300;6.614;2023-02-01T01:15:59;12.07;;;2.40;;
52942;SDS011;38809;53.300;6.614;2023-02-01T01:18:27;14.10;;;3.25;;
52942;SDS011;38809;53.300;6.614;2023-02-01T01:20:54;17.35;;;3.65;;
52942;SDS011;38809;53.300;6.614;2023-02-01T01:23:19;20.07;;;4.37;;
52942;SDS011;38809;53.300;6.614;2023-02-01T01:25:45;16.73;;;3.60;;
52942;SDS011;38809;53.300;6.614;2023-02-01T01:28:11;16.10;;;3.50;;
52942;SDS011;38809;53.300;6.614;2023-02-01T01:30:36;14.63;;;3.77;;
52942;SDS011;38809;53.300;6.614;2023-02-01T01:33:02;21.40;;;4.90;;
52942;SDS011;38809;53.300;6.614;2023-02-01T01:35:29;21.60;;;4.20;;
52942;SDS011;38809;53.300;6.614;2023-02-01T01:37:55;19.63;;;4.00;;
52942;SDS011;38809;53.300;6.614;2023-02-01T01:40:21;18.10;;;3.58;;
52942;SDS011;38809;53.300;6.614;2023-02-01T01:42:47;22.30;;;4.37;;
52942;SDS011;38809;53.300;6.614;2023-02-01T01:47:59;25.83;;;3.92;;
52942;SDS011;38809;53.300;6.614;2023-02-01T01:50:44;19.65;;;3.65;;
52942;SDS011;38809;53.300;6.614;2023-02-01T01:53:18;16.48;;;4.20;;
52942;SDS011;38809;53.300;6.614;2023-02-01T01:55:48;17.80;;;3.97;;
52942;SDS011;38809;53.300;6.614;2023-02-01T02:00:43;19.92;;;4.68;;
52942;SDS011;38809;53.300;6.614;2023-02-01T02:05:44;22.77;;;4.38;;
52942;SDS011;38809;53.300;6.614;2023-02-01T02:08:12;15.73;;;3.95;;
52942;SDS011;38809;53.300;6.614;2023-02-01T02:10:38;16.67;;;3.42;;
52942;SDS011;38809;53.300;6.614;2023-02-01T02:13:23;15.60;;;3.35;;
52942;SDS011;38809;53.300;6.614;2023-02-01T02:27:15;17.50;;;4.20;;
52942;SDS011;38809;53.300;6.614;2023-02-01T02:35:37;17.10;;;3.40;;
52942;SDS011;38809;53.300;6.614;2023-02-01T02:44:12;18.90;;;4.47;;
52942;SDS011;38809;53.300;6.614;2023-02-01T02:47:06;21.42;;;4.45;;
52942;SDS011;38809;53.300;6.614;2023-02-01T02:49:54;14.07;;;2.92;;
52942;SDS011;38809;53.300;6.614;2023-02-01T02:52:47;19.33;;;4.03;;
52942;SDS011;38809;53.300;6.614;2023-02-01T02:55:35;23.13;;;4.15;;
52942;SDS011;38809;53.300;6.614;2023-02-01T02:58:05;16.98;;;3.97;;
52942;SDS011;38809;53.300;6.614;2023-02-01T03:00:51;22.75;;;4.20;;
52942;SDS011;38809;53.300;6.614;2023-02-01T03:03:37;19.00;;;4.10;;
52942;SDS011;38809;53.300;6.614;2023-02-01T03:06:22;19.88;;;3.83;;
52942;SDS011;38809;53.300;6.614;2023-02-01T03:08:49;18.15;;;3.90;;
52942;SDS011;38809;53.300;6.614;2023-02-01T03:11:19;22.27;;;4.70;;
52942;SDS011;38809;53.300;6.614;2023-02-01T03:13:53;15.75;;;4.05;;
52942;SDS011;38809;53.300;6.614;2023-02-01T03:16:32;16.60;;;4.07;;
52942;SDS011;38809;53.300;6.614;2023-02-01T03:19:08;17.70;;;3.72;;
52942;SDS011;38809;53.300;6.614;2023-02-01T03:21:57;16.02;;;3.40;;
52942;SDS011;38809;53.300;6.614;2023-02-01T03:27:22;14.90;;;3.78;;
52942;SDS011;38809;53.300;6.614;2023-02-01T03:32:23;18.92;;;3.45;;
52942;SDS011;38809;53.300;6.614;2023-02-01T03:34:49;21.70;;;4.38;;
52942;SDS011;38809;53.300;6.614;2023-02-01T03:37:20;20.17;;;4.32;;
52942;SDS011;38809;53.300;6.614;2023-02-01T03:42:19;20.60;;;4.13;;
52942;SDS011;38809;53.300;6.614;2023-02-01T03:47:52;18.63;;;3.90;;
52942;SDS011;38809;53.300;6.614;2023-02-01T03:50:20;18.00;;;4.45;;
52942;SDS011;38809;53.300;6.614;2023-02-01T03:55:24;25.58;;;4.38;;
52942;SDS011;38809;53.300;6.614;2023-02-01T03:58:09;13.75;;;3.55;;
52942;SDS011;38809;53.300;6.614;2023-02-01T04:00:54;21.77;;;4.28;;
52942;SDS011;38809;53.300;6.614;2023-02-01T04:03:21;17.25;;;4.00;;
52942;SDS011;38809;53.300;6.614;2023-02-01T04:05:51;18.02;;;3.72;;
52942;SDS011;38809;53.300;6.614;2023-02-01T04:08:20;21.52;;;3.97;;
52942;SDS011;38809;53.300;6.614;2023-02-01T04:10:46;22.50;;;4.70;;
52942;SDS011;38809;53.300;6.614;2023-02-01T04:13:12;19.75;;;4.20;;
52942;SDS011;38809;53.300;6.614;2023-02-01T04:15:38;23.50;;;5.05;;
52942;SDS011;38809;53.300;6.614;2023-02-01T04:18:03;18.57;;;4.20;;
52942;SDS011;38809;53.300;6.614;2023-02-01T04:20:30;21.67;;;4.18;;
52942;SDS011;38809;53.300;6.614;2023-02-01T04:22:55;14.60;;;4.37;;
52942;SDS011;38809;53.300;6.614;2023-02-01T04:25:21;28.17;;;5.13;;
52942;SDS011;38809;53.300;6.614;2023-02-01T04:27:47;23.57;;;4.90;;
52942;SDS011;38809;53.300;6.614;2023-02-01T04:30:13;18.77;;;4.30;;
52942;SDS011;38809;53.300;6.614;2023-02-01T04:32:39;20.58;;;5.05;;
52942;SDS011;38809;53.300;6.614;2023-02-01T04:35:06;21.95;;;4.45;;
52942;SDS011;38809;53.300;6.614;2023-02-01T04:37:32;22.88;;;4.28;;
52942;SDS011;38809;53.300;6.614;2023-02-01T04:39:58;19.60;;;4.00;;
52942;SDS011;38809;53.300;6.614;2023-02-01T04:42:24;14.57;;;3.53;;
52942;SDS011;38809;53.300;6.614;2023-02-01T04:44:50;21.15;;;4.78;;
52942;SDS011;38809;53.300;6.614;2023-02-01T04:47:16;15.38;;;3.30;;
52942;SDS011;38809;53.300;6.614;2023-02-01T04:49:41;14.73;;;3.57;;
52942;SDS011;38809;53.300;6.614;2023-02-01T04:52:07;19.77;;;3.90;;
52942;SDS011;38809;53.300;6.614;2023-02-01T04:54:33;18.92;;;3.83;;
52942;SDS011;38809;53.300;6.614;2023-02-01T04:56:59;21.70;;;4.57;;
52942;SDS011;38809;53.300;6.614;2023-02-01T04:59:25;16.40;;;3.97;;
52942;SDS011;38809;53.300;6.614;2023-02-01T05:01:51;22.35;;;4.93;;
52942;SDS011;38809;53.300;6.614;2023-02-01T05:04:16;18.23;;;3.73;;
52942;SDS011;38809;53.300;6.614;2023-02-01T05:06:43;20.38;;;4.68;;
52942;SDS011;38809;53.300;6.614;2023-02-01T05:09:09;17.90;;;4.13;;
52942;SDS011;38809;53.300;6.614;2023-02-01T05:11:35;17.45;;;3.97;;
52942;SDS011;38809;53.300;6.614;2023-02-01T05:14:19;16.00;;;3.67;;
52942;SDS011;38809;53.300;6.614;2023-02-01T05:16:45;21.58;;;4.00;;
52942;SDS011;38809;53.300;6.614;2023-02-01T05:19:11;15.38;;;4.45;;
52942;SDS011;38809;53.300;6.614;2023-02-01T05:21:37;16.55;;;3.60;;
52942;SDS011;38809;53.300;6.614;2023-02-01T05:24:03;22.35;;;3.80;;
52942;SDS011;38809;53.300;6.614;2023-02-01T05:26:35;16.65;;;3.92;;
52942;SDS011;38809;53.300;6.614;2023-02-01T05:29:02;17.92;;;4.35;;
52942;SDS011;38809;53.300;6.614;2023-02-01T05:31:28;21.17;;;4.45;;
52942;SDS011;38809;53.300;6.614;2023-02-01T05:33:54;20.90;;;3.97;;
52942;SDS011;38809;53.300;6.614;2023-02-01T05:36:20;21.58;;;4.13;;
52942;SDS011;38809;53.300;6.614;2023-02-01T05:38:45;18.23;;;4.87;;
52942;SDS011;38809;53.300;6.614;2023-02-01T05:41:11;20.33;;;3.83;;
52942;SDS011;38809;53.300;6.614;2023-02-01T05:43:37;19.70;;;4.17;;
52942;SDS011;38809;53.300;6.614;2023-02-01T05:46:02;23.48;;;5.10;;
52942;SDS011;38809;53.300;6.614;2023-02-01T05:48:28;18.10;;;5.18;;
52942;SDS011;38809;53.300;6.614;2023-02-01T05:50:54;17.77;;;4.28;;
52942;SDS011;38809;53.300;6.614;2023-02-01T05:53:20;20.35;;;3.70;;
52942;SDS011;38809;53.300;6.614;2023-02-01T05:55:46;20.75;;;5.00;;
52942;SDS011;38809;53.300;6.614;2023-02-01T05:58:11;19.43;;;5.03;;
52942;SDS011;38809;53.300;6.614;2023-02-01T06:00:38;21.73;;;4.10;;
52942;SDS011;38809;53.300;6.614;2023-02-01T06:03:04;21.95;;;4.63;;
52942;SDS011;38809;53.300;6.614;2023-02-01T06:05:30;15.25;;;3.65;;
52942;SDS011;38809;53.300;6.614;2023-02-01T06:07:56;22.33;;;5.00;;
52942;SDS011;38809;53.300;6.614;2023-02-01T06:10:22;21.58;;;3.95;;
52942;SDS011;38809;53.300;6.614;2023-02-01T06:12:48;14.73;;;3.63;;
52942;SDS011;38809;53.300;6.614;2023-02-01T06:15:13;19.27;;;3.97;;
52942;SDS011;38809;53.300;6.614;2023-02-01T06:17:44;26.15;;;5.10;;
52942;SDS011;38809;53.300;6.614;2023-02-01T06:20:11;13.43;;;4.05;;
52942;SDS011;38809;53.300;6.614;2023-02-01T06:22:39;19.83;;;4.60;;
52942;SDS011;38809;53.300;6.614;2023-02-01T06:25:05;14.70;;;2.58;;
52942;SDS011;38809;53.300;6.614;2023-02-01T06:27:32;20.33;;;3.60;;
52942;SDS011;38809;53.300;6.614;2023-02-01T06:29:58;18.83;;;4.10;;
52942;SDS011;38809;53.300;6.614;2023-02-01T06:32:24;21.23;;;4.73;;
52942;SDS011;38809;53.300;6.614;2023-02-01T06:34:50;18.88;;;3.10;;
52942;SDS011;38809;53.300;6.614;2023-02-01T06:37:17;21.08;;;4.50;;
52942;SDS011;38809;53.300;6.614;2023-02-01T06:39:44;15.52;;;3.67;;
52942;SDS011;38809;53.300;6.614;2023-02-01T06:42:09;18.90;;;4.33;;
52942;SDS011;38809;53.300;6.614;2023-02-01T06:44:35;15.70;;;4.47;;
52942;SDS011;38809;53.300;6.614;2023-02-01T06:47:02;16.00;;;3.40;;
52942;SDS011;38809;53.300;6.614;2023-02-01T06:49:28;21.15;;;4.43;;
52942;SDS011;38809;53.300;6.614;2023-02-01T06:51:54;20.63;;;5.03;;
52942;SDS011;38809;53.300;6.614;2023-02-01T06:54:19;21.50;;;4.23;;
52942;SDS011;38809;53.300;6.614;2023-02-01T06:56:45;18.87;;;3.93;;
52942;SDS011;38809;53.300;6.614;2023-02-01T06:59:11;16.92;;;3.97;;
52942;SDS011;38809;53.300;6.614;2023-02-01T07:01:37;16.48;;;5.70;;
52942;SDS011;38809;53.300;6.614;2023-02-01T07:04:02;19.13;;;4.30;;
52942;SDS011;38809;53.300;6.614;2023-02-01T07:06:28;17.90;;;3.80;;
52942;SDS011;38809;53.300;6.614;2023-02-01T07:08:54;15.50;;;4.38;;
52942;SDS011;38809;53.300;6.614;2023-02-01T07:11:20;18.77;;;4.15;;
52942;SDS011;38809;53.300;6.614;2023-02-01T07:13:46;14.90;;;3.38;;
52942;SDS011;38809;53.300;6.614;2023-02-01T07:16:14;15.57;;;3.17;;
52942;SDS011;38809;53.300;6.614;2023-02-01T07:18:41;13.25;;;2.88;;
52942;SDS011;38809;53.300;6.614;2023-02-01T07:21:08;22.17;;;4.00;;
52942;SDS011;38809;53.300;6.614;2023-02-01T07:23:34;18.35;;;4.30;;
52942;SDS011;38809;53.300;6.614;2023-02-01T07:26:01;17.17;;;3.60;;
52942;SDS011;38809;53.300;6.614;2023-02-01T07:28:29;20.27;;;3.58;;
52942;SDS011;38809;53.300;6.614;2023-02-01T07:31:29;17.25;;;3.05;;
52942;SDS011;38809;53.300;6.614;2023-02-01T07:33:51;19.38;;;3.78;;
52942;SDS011;38809;53.300;6.614;2023-02-01T07:36:17;27.33;;;4.90;;
52942;SDS011;38809;53.300;6.614;2023-02-01T07:38:43;24.48;;;4.53;;
52942;SDS011;38809;53.300;6.614;2023-02-01T07:41:11;18.48;;;4.65;;
52942;SDS011;38809;53.300;6.614;2023-02-01T07:43:37;25.58;;;5.53;;
52942;SDS011;38809;53.300;6.614;2023-02-01T07:46:04;26.30;;;5.40;;
52942;SDS011;38809;53.300;6.614;2023-02-01T07:50:56;23.55;;;4.00;;
52942;SDS011;38809;53.300;6.614;2023-02-01T07:53:42;25.38;;;4.80;;
52942;SDS011;38809;53.300;6.614;2023-02-01T07:58:39;25.98;;;5.20;;
52942;SDS011;38809;53.300;6.614;2023-02-01T08:01:05;29.17;;;4.65;;
52942;SDS011;38809;53.300;6.614;2023-02-01T08:03:56;29.00;;;4.53;;
52942;SDS011;38809;53.300;6.614;2023-02-01T08:06:24;23.48;;;4.85;;
52942;SDS011;38809;53.300;6.614;2023-02-01T08:08:50;20.48;;;4.28;;
52942;SDS011;38809;53.300;6.614;2023-02-01T08:13:43;19.98;;;5.10;;
52942;SDS011;38809;53.300;6.614;2023-02-01T08:16:10;27.38;;;5.47;;
52942;SDS011;38809;53.300;6.614;2023-02-01T08:18:37;19.98;;;3.08;;
52942;SDS011;38809;53.300;6.614;2023-02-01T08:21:04;19.67;;;3.63;;
52942;SDS011;38809;53.300;6.614;2023-02-01T08:23:32;27.08;;;4.57;;
52942;SDS011;38809;53.300;6.614;2023-02-01T08:28:37;23.75;;;4.45;;
52942;SDS011;38809;53.300;6.614;2023-02-01T08:31:04;22.23;;;4.38;;
52942;SDS011;38809;53.300;6.614;2023-02-01T08:33:31;27.63;;;4.72;;
52942;SDS011;38809;53.300;6.614;2023-02-01T08:35:57;20.15;;;4.05;;
52942;SDS011;38809;53.300;6.614;2023-02-01T08:38:22;20.13;;;5.10;;
52942;SDS011;38809;53.300;6.614;2023-02-01T08:40:48;16.10;;;2.77;;
52942;SDS011;38809;53.300;6.614;2023-02-01T08:43:14;20.50;;;4.47;;
52942;SDS011;38809;53.300;6.614;2023-02-01T09:34:17;17.15;;;3.88;;
52942;SDS011;38809;53.300;6.614;2023-02-01T09:36:42;23.23;;;4.47;;
52942;SDS011;38809;53.300;6.614;2023-02-01T09:39:08;18.77;;;3.83;;
52942;SDS011;38809;53.300;6.614;2023-02-01T09:46:49;19.20;;;3.88;;
52942;SDS011;38809;53.300;6.614;2023-02-01T09:49:28;19.83;;;3.97;;
52942;SDS011;38809;53.300;6.614;2023-02-01T09:51:56;17.85;;;3.10;;
52942;SDS011;38809;53.300;6.614;2023-02-01T09:54:25;14.30;;;3.92;;
52942;SDS011;38809;53.300;6.614;2023-02-01T09:56:54;17.52;;;4.10;;
52942;SDS011;38809;53.300;6.614;2023-02-01T09:59:29;20.20;;;4.22;;
52942;SDS011;38809;53.300;6.614;2023-02-01T10:02:14;16.17;;;3.28;;
52942;SDS011;38809;53.300;6.614;2023-02-01T10:04:49;15.75;;;3.53;;
52942;SDS011;38809;53.300;6.614;2023-02-01T10:09:50;19.35;;;3.03;;
52942;SDS011;38809;53.300;6.614;2023-02-01T10:15:18;18.55;;;4.07;;
52942;SDS011;38809;53.300;6.614;2023-02-01T10:21:04;16.65;;;3.60;;
52942;SDS011;38809;53.300;6.614;2023-02-01T10:23:27;16.67;;;3.90;;
52942;SDS011;38809;53.300;6.614;2023-02-01T10:26:23;17.70;;;3.42;;
52942;SDS011;38809;53.300;6.614;2023-02-01T10:28:57;18.02;;;4.32;;
52942;SDS011;38809;53.300;6.614;2023-02-01T10:31:27;21.80;;;5.10;;
52942;SDS011;38809;53.300;6.614;2023-02-01T10:33:56;14.38;;;4.50;;
52942;SDS011;38809;53.300;6.614;2023-02-01T10:38:58;18.75;;;4.00;;
52942;SDS011;38809;53.300;6.614;2023-02-01T10:41:24;15.10;;;3.95;;
52942;SDS011;38809;53.300;6.614;2023-02-01T10:44:09;21.15;;;4.55;;
52942;SDS011;38809;53.300;6.614;2023-02-01T10:46:47;20.45;;;3.42;;
52942;SDS011;38809;53.300;6.614;2023-02-01T10:49:18;16.70;;;3.85;;
52942;SDS011;38809;53.300;6.614;2023-02-01T10:51:54;22.70;;;3.97;;
52942;SDS011;38809;53.300;6.614;2023-02-01T10:54:32;18.10;;;3.58;;
52942;SDS011;38809;53.300;6.614;2023-02-01T10:57:20;16.80;;;4.03;;
52942;SDS011;38809;53.300;6.614;2023-02-01T10:59:46;17.02;;;3.70;;
52942;SDS011;38809;53.300;6.614;2023-02-01T11:02:20;19.13;;;3.87;;
52942;SDS011;38809;53.300;6.614;2023-02-01T11:05:33;24.13;;;4.43;;
52942;SDS011;38809;53.300;6.614;2023-02-01T11:07:53;21.80;;;4.20;;
52942;SDS011;38809;53.300;6.614;2023-02-01T11:10:40;24.17;;;4.55;;
52942;SDS011;38809;53.300;6.614;2023-02-01T11:13:11;10.93;;;1.92;;
52942;SDS011;38809;53.300;6.614;2023-02-01T11:15:43;5.15;;;1.00;;
52942;SDS011;38809;53.300;6.614;2023-02-01T11:18:30;3.45;;;0.68;;
52942;SDS011;38809;53.300;6.614;2023-02-01T11:20:57;3.47;;;0.80;;
52942;SDS011;38809;53.300;6.614;2023-02-01T11:23:25;2.65;;;0.50;;
52942;SDS011;38809;53.300;6.614;2023-02-01T11:25:55;1.88;;;0.50;;
52942;SDS011;38809;53.300;6.614;2023-02-01T11:28:26;4.15;;;0.73;;
52942;SDS011;38809;53.300;6.614;2023-02-01T11:30:59;1.95;;;0.55;;
52942;SDS011;38809;53.300;6.614;2023-02-01T11:33:32;3.85;;;0.60;;
52942;SDS011;38809;53.300;6.614;2023-02-01T11:36:11;5.63;;;1.08;;
52942;SDS011;38809;53.300;6.614;2023-02-01T11:38:40;4.15;;;1.10;;
52942;SDS011;38809;53.300;6.614;2023-02-01T11:41:31;4.45;;;1.10;;
52942;SDS011;38809;53.300;6.614;2023-02-01T11:44:01;4.60;;;0.88;;
52942;SDS011;38809;53.300;6.614;2023-02-01T11:46:40;3.35;;;0.90;;
52942;SDS011;38809;53.300;6.614;2023-02-01T11:49:23;4.80;;;0.87;;
52942;SDS011;38809;53.300;6.614;2023-02-01T11:52:06;4.45;;;0.88;;
52942;SDS011;38809;53.300;6.614;2023-02-01T12:17:43;9.38;;;1.92;;
52942;SDS011;38809;53.300;6.614;2023-02-01T12:20:31;4.22;;;1.15;;
52942;SDS011;38809;53.300;6.614;2023-02-01T12:23:31;13.38;;;2.22;;
52942;SDS011;38809;53.300;6.614;2023-02-01T12:29:18;13.98;;;2.40;;
52942;SDS011;38809;53.300;6.614;2023-02-01T12:37:22;15.83;;;2.83;;
52942;SDS011;38809;53.300;6.614;2023-02-01T12:45:48;24.92;;;4.53;;
52942;SDS011;38809;53.300;6.614;2023-02-01T12:48:35;33.47;;;6.57;;
52942;SDS011;38809;53.300;6.614;2023-02-01T12:51:07;31.98;;;5.30;;
52942;SDS011;38809;53.300;6.614;2023-02-01T12:56:03;26.80;;;5.40;;
52942;SDS011;38809;53.300;6.614;2023-02-01T13:01:19;22.88;;;4.80;;
52942;SDS011;38809;53.300;6.614;2023-02-01T13:04:20;29.10;;;5.47;;
52942;SDS011;38809;53.300;6.614;2023-02-01T13:07:18;21.42;;;4.38;;
52942;SDS011;38809;53.300;6.614;2023-02-01T13:09:51;18.10;;;4.53;;
52942;SDS011;38809;53.300;6.614;2023-02-01T13:12:24;20.63;;;3.92;;
52942;SDS011;38809;53.300;6.614;2023-02-01T13:14:58;28.65;;;4.95;;
52942;SDS011;38809;53.300;6.614;2023-02-01T13:17:31;25.20;;;4.30;;
52942;SDS011;38809;53.300;6.614;2023-02-01T13:25:19;23.73;;;4.35;;
52942;SDS011;38809;53.300;6.614;2023-02-01T13:27:49;25.10;;;4.82;;
52942;SDS011;38809;53.300;6.614;2023-02-01T13:30:21;26.20;;;5.03;;
52942;SDS011;38809;53.300;6.614;2023-02-01T13:38:39;21.10;;;5.00;;
52942;SDS011;38809;53.300;6.614;2023-02-01T13:43:53;29.42;;;5.43;;
52942;SDS011;38809;53.300;6.614;2023-02-01T13:46:23;32.60;;;5.43;;
52942;SDS011;38809;53.300;6.614;2023-02-01T13:48:53;25.48;;;5.50;;
52942;SDS011;38809;53.300;6.614;2023-02-01T13:51:36;25.25;;;5.32;;
52942;SDS011;38809;53.300;6.614;2023-02-01T13:57:01;24.65;;;4.05;;
52942;SDS011;38809;53.300;6.614;2023-02-01T14:00:22;28.00;;;5.20;;
52942;SDS011;38809;53.300;6.614;2023-02-01T14:05:11;20.77;;;4.53;;
52942;SDS011;38809;53.300;6.614;2023-02-01T14:07:42;21.77;;;4.53;;
52942;SDS011;38809;53.300;6.614;2023-02-01T14:16:19;20.48;;;4.32;;
52942;SDS011;38809;53.300;6.614;2023-02-01T14:26:45;23.75;;;4.20;;
52942;SDS011;38809;53.300;6.614;2023-02-01T14:29:38;23.58;;;4.80;;
52942;SDS011;38809;53.300;6.614;2023-02-01T14:42:28;22.67;;;5.45;;
52942;SDS011;38809;53.300;6.614;2023-02-01T14:50:39;21.08;;;4.88;;
52942;SDS011;38809;53.300;6.614;2023-02-01T14:55:40;24.48;;;4.20;;
52942;SDS011;38809;53.300;6.614;2023-02-01T15:06:41;23.52;;;4.28;;
52942;SDS011;38809;53.300;6.614;2023-02-01T15:11:53;19.60;;;4.18;;
52942;SDS011;38809;53.300;6.614;2023-02-01T15:14:33;25.15;;;5.03;;
52942;SDS011;38809;53.300;6.614;2023-02-01T15:17:00;22.45;;;5.32;;
52942;SDS011;38809;53.300;6.614;2023-02-01T15:19:27;17.25;;;4.03;;
52942;SDS011;38809;53.300;6.614;2023-02-01T15:21:56;24.73;;;4.45;;
52942;SDS011;38809;53.300;6.614;2023-02-01T15:26:50;20.23;;;4.05;;
52942;SDS011;38809;53.300;6.614;2023-02-01T15:29:18;23.17;;;4.57;;
52942;SDS011;38809;53.300;6.614;2023-02-01T15:31:46;26.23;;;4.72;;
52942;SDS011;38809;53.300;6.614;2023-02-01T15:34:16;27.75;;;4.65;;
52942;SDS011;38809;53.300;6.614;2023-02-01T15:36:43;26.13;;;4.97;;
52942;SDS011;38809;53.300;6.614;2023-02-01T15:39:23;26.98;;;4.65;;
52942;SDS011;38809;53.300;6.614;2023-02-01T15:41:53;16.48;;;3.90;;
52942;SDS011;38809;53.300;6.614;2023-02-01T15:44:30;21.85;;;4.55;;
52942;SDS011;38809;53.300;6.614;2023-02-01T15:47:29;25.52;;;4.80;;
52942;SDS011;38809;53.300;6.614;2023-02-01T15:49:56;20.27;;;4.40;;
52942;SDS011;38809;53.300;6.614;2023-02-01T15:57:38;24.95;;;4.93;;
52942;SDS011;38809;53.300;6.614;2023-02-01T16:00:07;22.48;;;5.13;;
52942;SDS011;38809;53.300;6.614;2023-02-01T16:02:59;24.10;;;4.68;;
52942;SDS011;38809;53.300;6.614;2023-02-01T16:05:33;24.90;;;5.60;;
52942;SDS011;38809;53.300;6.614;2023-02-01T16:08:19;22.77;;;4.55;;
52942;SDS011;38809;53.300;6.614;2023-02-01T16:10:47;23.88;;;4.78;;
52942;SDS011;38809;53.300;6.614;2023-02-01T16:13:16;21.23;;;4.72;;
52942;SDS011;38809;53.300;6.614;2023-02-01T16:15:42;25.52;;;4.72;;
52942;SDS011;38809;53.300;6.614;2023-02-01T16:18:09;19.88;;;4.30;;
52942;SDS011;38809;53.300;6.614;2023-02-01T16:20:37;21.20;;;4.68;;
52942;SDS011;38809;53.300;6.614;2023-02-01T16:23:04;16.88;;;3.50;;
52942;SDS011;38809;53.300;6.614;2023-02-01T16:25:31;18.80;;;4.18;;
52942;SDS011;38809;53.300;6.614;2023-02-01T16:27:57;23.80;;;4.30;;
52942;SDS011;38809;53.300;6.614;2023-02-01T16:30:23;22.42;;;4.90;;
52942;SDS011;38809;53.300;6.614;2023-02-01T16:32:53;16.40;;;3.95;;
52942;SDS011;38809;53.300;6.614;2023-02-01T16:37:50;24.23;;;4.53;;
52942;SDS011;38809;53.300;6.614;2023-02-01T16:40:16;25.25;;;4.47;;
52942;SDS011;38809;53.300;6.614;2023-02-01T16:42:42;18.45;;;4.22;;
52942;SDS011;38809;53.300;6.614;2023-02-01T16:45:10;21.15;;;4.43;;
52942;SDS011;38809;53.300;6.614;2023-02-01T16:47:36;16.73;;;4.13;;
52942;SDS011;38809;53.300;6.614;2023-02-01T16:50:03;18.02;;;4.68;;
52942;SDS011;38809;53.300;6.614;2023-02-01T16:52:29;23.13;;;4.70;;
52942;SDS011;38809;53.300;6.614;2023-02-01T16:54:55;19.02;;;3.95;;
52942;SDS011;38809;53.300;6.614;2023-02-01T16:57:22;19.97;;;3.93;;
52942;SDS011;38809;53.300;6.614;2023-02-01T16:59:48;23.20;;;5.22;;
52942;SDS011;38809;53.300;6.614;2023-02-01T17:02:18;15.98;;;4.18;;
52942;SDS011;38809;53.300;6.614;2023-02-01T17:04:45;20.70;;;4.07;;
52942;SDS011;38809;53.300;6.614;2023-02-01T17:07:13;25.70;;;5.10;;
52942;SDS011;38809;53.300;6.614;2023-02-01T17:09:43;17.48;;;3.63;;
52942;SDS011;38809;53.300;6.614;2023-02-01T17:12:21;18.05;;;3.72;;
52942;SDS011;38809;53.300;6.614;2023-02-01T17:14:48;20.23;;;4.15;;
52942;SDS011;38809;53.300;6.614;2023-02-01T17:17:15;18.55;;;3.55;;
52942;SDS011;38809;53.300;6.614;2023-02-01T17:19:41;23.08;;;4.38;;
52942;SDS011;38809;53.300;6.614;2023-02-01T17:22:09;21.55;;;4.70;;
52942;SDS011;38809;53.300;6.614;2023-02-01T17:24:35;18.13;;;3.90;;
52942;SDS011;38809;53.300;6.614;2023-02-01T17:27:01;15.30;;;2.87;;
52942;SDS011;38809;53.300;6.614;2023-02-01T17:29:28;16.30;;;3.42;;
52942;SDS011;38809;53.300;6.614;2023-02-01T17:31:54;21.42;;;4.00;;
52942;SDS011;38809;53.300;6.614;2023-02-01T17:34:20;15.75;;;3.42;;
52942;SDS011;38809;53.300;6.614;2023-02-01T17:36:47;22.92;;;4.45;;
52942;SDS011;38809;53.300;6.614;2023-02-01T17:39:13;15.98;;;3.25;;
52942;SDS011;38809;53.300;6.614;2023-02-01T17:42:00;14.33;;;3.50;;
52942;SDS011;38809;53.300;6.614;2023-02-01T17:44:26;18.20;;;3.15;;
52942;SDS011;38809;53.300;6.614;2023-02-01T17:46:52;11.03;;;3.20;;
52942;SDS011;38809;53.300;6.614;2023-02-01T17:49:19;16.67;;;3.38;;
52942;SDS011;38809;53.300;6.614;2023-02-01T17:51:45;19.07;;;3.50;;
52942;SDS011;38809;53.300;6.614;2023-02-01T17:54:11;18.52;;;3.67;;
52942;SDS011;38809;53.300;6.614;2023-02-01T17:56:37;16.70;;;3.30;;
52942;SDS011;38809;53.300;6.614;2023-02-01T17:59:03;16.48;;;3.80;;
52942;SDS011;38809;53.300;6.614;2023-02-01T18:01:29;14.47;;;3.10;;
52942;SDS011;38809;53.300;6.614;2023-02-01T18:03:55;19.77;;;3.30;;
52942;SDS011;38809;53.300;6.614;2023-02-01T18:06:21;13.97;;;3.27;;
52942;SDS011;38809;53.300;6.614;2023-02-01T18:08:50;15.85;;;3.80;;
52942;SDS011;38809;53.300;6.614;2023-02-01T18:11:17;17.88;;;3.60;;
52942;SDS011;38809;53.300;6.614;2023-02-01T18:13:45;17.42;;;3.50;;
52942;SDS011;38809;53.300;6.614;2023-02-01T18:16:16;16.48;;;3.20;;
52942;SDS011;38809;53.300;6.614;2023-02-01T18:18:45;17.45;;;3.42;;
52942;SDS011;38809;53.300;6.614;2023-02-01T18:21:12;14.90;;;3.25;;
52942;SDS011;38809;53.300;6.614;2023-02-01T18:23:38;12.55;;;3.47;;
52942;SDS011;38809;53.300;6.614;2023-02-01T18:26:04;14.75;;;3.10;;
52942;SDS011;38809;53.300;6.614;2023-02-01T18:28:30;16.53;;;3.90;;
52942;SDS011;38809;53.300;6.614;2023-02-01T18:30:55;9.88;;;2.20;;
52942;SDS011;38809;53.300;6.614;2023-02-01T18:33:21;13.27;;;3.10;;
52942;SDS011;38809;53.300;6.614;2023-02-01T18:35:47;19.17;;;4.75;;
52942;SDS011;38809;53.300;6.614;2023-02-01T18:38:13;16.63;;;3.80;;
52942;SDS011;38809;53.300;6.614;2023-02-01T18:40:50;13.48;;;2.30;;
52942;SDS011;38809;53.300;6.614;2023-02-01T18:43:18;11.43;;;2.90;;
52942;SDS011;38809;53.300;6.614;2023-02-01T18:45:45;17.73;;;3.35;;
52942;SDS011;38809;53.300;6.614;2023-02-01T18:48:12;16.17;;;3.72;;